sensor_id;sensor_type;location;lat;lon;timestamp;temperature;humidity
12771;DHT22;6449;47.666;9.160;2022-08-21T00:31:17;16.80;99.90
12771;DHT22;6449;47.666;9.160;2022-08-21T00:41:21;16.60;99.90
12771;DHT22;6449;47.666;9.160;2022-08-21T00:51:42;16.50;99.90
12771;DHT22;6449;47.666;9.160;2022-08-21T00:56:40;16.20;99.90
12771;DHT22;6449;47.666;9.160;2022-08-21T01:27:28;16.80;99.90
12771;DHT22;6449;47.666;9.160;2022-08-21T01:32:22;16.80;99.90
12771;DHT22;6449;47.666;9.160;2022-08-21T01:42:45;16.70;99.90
12771;DHT22;6449;47.666;9.160;2022-08-21T01:47:39;16.70;99.90
12771;DHT22;6449;47.666;9.160;2022-08-21T01:52:33;16.60;99.90
12771;DHT22;6449;47.666;9.160;2022-08-21T01:57:26;16.70;99.90
12771;DHT22;6449;47.666;9.160;2022-08-21T02:02:21;16.80;99.90
12771;DHT22;6449;47.666;9.160;2022-08-21T02:07:15;16.80;99.90
12771;DHT22;6449;47.666;9.160;2022-08-21T02:12:08;16.90;99.90
12771;DHT22;6449;47.666;9.160;2022-08-21T02:17:03;16.90;99.90
12771;DHT22;6449;47.666;9.160;2022-08-21T02:22:01;16.90;99.90
12771;DHT22;6449;47.666;9.160;2022-08-21T02:26:55;16.90;99.90
12771;DHT22;6449;47.666;9.160;2022-08-21T02:31:49;16.80;99.90
12771;DHT22;6449;47.666;9.160;2022-08-21T02:36:45;16.90;99.90
12771;DHT22;6449;47.666;9.160;2022-08-21T02:41:52;17.00;99.90
12771;DHT22;6449;47.666;9.160;2022-08-21T02:46:45;16.90;99.90
12771;DHT22;6449;47.666;9.160;2022-08-21T02:51:39;17.00;99.90
12771;DHT22;6449;47.666;9.160;2022-08-21T02:56:33;17.00;99.90
12771;DHT22;6449;47.666;9.160;2022-08-21T03:01:27;17.10;99.90
12771;DHT22;6449;47.666;9.160;2022-08-21T03:06:24;17.10;99.90
12771;DHT22;6449;47.666;9.160;2022-08-21T03:11:17;17.00;99.90
12771;DHT22;6449;47.666;9.160;2022-08-21T03:16:12;17.10;99.90
12771;DHT22;6449;47.666;9.160;2022-08-21T03:21:08;17.10;99.90
12771;DHT22;6449;47.666;9.160;2022-08-21T03:26:02;17.10;99.90
12771;DHT22;6449;47.666;9.160;2022-08-21T03:30:58;17.10;99.90
12771;DHT22;6449;47.666;9.160;2022-08-21T03:36:02;17.10;99.90
12771;DHT22;6449;47.666;9.160;2022-08-21T03:40:59;17.10;99.90
12771;DHT22;6449;47.666;9.160;2022-08-21T03:45:53;17.10;99.90
12771;DHT22;6449;47.666;9.160;2022-08-21T03:50:46;17.10;99.90
12771;DHT22;6449;47.666;9.160;2022-08-21T03:55:41;17.10;99.90
12771;DHT22;6449;47.666;9.160;2022-08-21T04:00:36;17.20;99.90
12771;DHT22;6449;47.666;9.160;2022-08-21T04:05:30;17.10;99.90
12771;DHT22;6449;47.666;9.160;2022-08-21T04:10:25;17.10;99.90
12771;DHT22;6449;47.666;9.160;2022-08-21T04:15:21;17.10;99.90
12771;DHT22;6449;47.666;9.160;2022-08-21T04:20:18;17.10;99.90
12771;DHT22;6449;47.666;9.160;2022-08-21T04:25:14;17.10;99.90
12771;DHT22;6449;47.666;9.160;2022-08-21T04:30:09;17.00;99.90
12771;DHT22;6449;47.666;9.160;2022-08-21T04:35:06;17.00;99.90
12771;DHT22;6449;47.666;9.160;2022-08-21T04:40:04;17.00;99.90
12771;DHT22;6449;47.666;9.160;2022-08-21T04:45:02;17.10;99.90
12771;DHT22;6449;47.666;9.160;2022-08-21T04:49:56;17.20;99.90
12771;DHT22;6449;47.666;9.160;2022-08-21T04:54:50;17.20;99.90
12771;DHT22;6449;47.666;9.160;2022-08-21T04:59:49;17.20;99.90
12771;DHT22;6449;47.666;9.160;2022-08-21T05:04:47;17.20;99.90
12771;DHT22;6449;47.666;9.160;2022-08-21T05:09:43;17.30;99.90
12771;DHT22;6449;47.666;9.160;2022-08-21T05:14:37;17.20;99.90
12771;DHT22;6449;47.666;9.160;2022-08-21T05:19:32;17.20;99.90
12771;DHT22;6449;47.666;9.160;2022-08-21T05:24:25;17.20;99.90
12771;DHT22;6449;47.666;9.160;2022-08-21T05:29:19;17.20;99.90
12771;DHT22;6449;47.666;9.160;2022-08-21T05:34:14;17.10;99.90
12771;DHT22;6449;47.666;9.160;2022-08-21T05:39:12;17.10;99.90
12771;DHT22;6449;47.666;9.160;2022-08-21T05:44:05;17.20;99.90
12771;DHT22;6449;47.666;9.160;2022-08-21T05:49:01;17.30;99.90
12771;DHT22;6449;47.666;9.160;2022-08-21T05:53:54;17.30;99.90
12771;DHT22;6449;47.666;9.160;2022-08-21T05:58:49;17.30;99.90
12771;DHT22;6449;47.666;9.160;2022-08-21T06:03:43;17.30;99.90
12771;DHT22;6449;47.666;9.160;2022-08-21T06:08:36;17.30;99.90
12771;DHT22;6449;47.666;9.160;2022-08-21T06:13:30;17.30;99.90
12771;DHT22;6449;47.666;9.160;2022-08-21T06:18:25;17.40;99.90
12771;DHT22;6449;47.666;9.160;2022-08-21T06:28:24;17.60;99.90
12771;DHT22;6449;47.666;9.160;2022-08-21T06:43:39;17.80;99.90
12771;DHT22;6449;47.666;9.160;2022-08-21T06:53:44;17.90;99.90
12771;DHT22;6449;47.666;9.160;2022-08-21T06:58:39;18.10;99.90
12771;DHT22;6449;47.666;9.160;2022-08-21T07:03:34;18.20;99.90
12771;DHT22;6449;47.666;9.160;2022-08-21T07:08:29;18.20;99.90
12771;DHT22;6449;47.666;9.160;2022-08-21T07:13:23;18.20;99.90
12771;DHT22;6449;47.666;9.160;2022-08-21T07:49:25;19.20;99.90
12771;DHT22;6449;47.666;9.160;2022-08-21T07:59:29;18.90;99.90
12771;DHT22;6449;47.666;9.160;2022-08-21T08:14:45;19.30;99.90
12771;DHT22;6449;47.666;9.160;2022-08-21T09:52:41;21.70;99.90
12771;DHT22;6449;47.666;9.160;2022-08-21T10:37:31;23.20;99.90
12771;DHT22;6449;47.666;9.160;2022-08-21T10:47:47;23.10;99.90
12771;DHT22;6449;47.666;9.160;2022-08-21T11:08:13;23.30;99.90
12771;DHT22;6449;47.666;9.160;2022-08-21T11:13:15;23.20;99.90
12771;DHT22;6449;47.666;9.160;2022-08-21T11:18:25;23.30;99.90
12771;DHT22;6449;47.666;9.160;2022-08-21T11:23:24;23.40;99.90
12771;DHT22;6449;47.666;9.160;2022-08-21T11:28:28;23.40;99.90
12771;DHT22;6449;47.666;9.160;2022-08-21T11:33:37;23.50;99.90
12771;DHT22;6449;47.666;9.160;2022-08-21T11:38:44;23.50;99.90
12771;DHT22;6449;47.666;9.160;2022-08-21T11:43:46;23.70;99.90
12771;DHT22;6449;47.666;9.160;2022-08-21T11:48:48;23.70;99.90
12771;DHT22;6449;47.666;9.160;2022-08-21T11:54:00;23.60;99.90
12771;DHT22;6449;47.666;9.160;2022-08-21T11:59:02;23.50;99.90
12771;DHT22;6449;47.666;9.160;2022-08-21T12:04:03;23.50;99.90
12771;DHT22;6449;47.666;9.160;2022-08-21T12:09:04;23.60;99.90
12771;DHT22;6449;47.666;9.160;2022-08-21T12:14:11;23.70;99.90
12771;DHT22;6449;47.666;9.160;2022-08-21T12:19:08;23.70;99.90
12771;DHT22;6449;47.666;9.160;2022-08-21T12:24:16;23.50;99.90
12771;DHT22;6449;47.666;9.160;2022-08-21T12:29:16;23.50;99.90
12771;DHT22;6449;47.666;9.160;2022-08-21T12:34:16;23.50;99.90
12771;DHT22;6449;47.666;9.160;2022-08-21T12:39:15;23.50;99.90
12771;DHT22;6449;47.666;9.160;2022-08-21T12:44:17;23.50;99.90
12771;DHT22;6449;47.666;9.160;2022-08-21T12:49:21;23.40;99.90
12771;DHT22;6449;47.666;9.160;2022-08-21T12:54:27;23.40;99.90
12771;DHT22;6449;47.666;9.160;2022-08-21T12:59:22;23.40;99.90
12771;DHT22;6449;47.666;9.160;2022-08-21T13:04:18;23.40;99.90
12771;DHT22;6449;47.666;9.160;2022-08-21T13:09:16;23.50;99.90
12771;DHT22;6449;47.666;9.160;2022-08-21T13:14:20;23.50;99.90
12771;DHT22;6449;47.666;9.160;2022-08-21T13:19:18;23.50;99.90
12771;DHT22;6449;47.666;9.160;2022-08-21T13:24:17;23.40;99.90
12771;DHT22;6449;47.666;9.160;2022-08-21T13:29:34;23.30;99.90
12771;DHT22;6449;47.666;9.160;2022-08-21T13:34:33;23.30;99.90
12771;DHT22;6449;47.666;9.160;2022-08-21T13:39:29;23.20;99.90
12771;DHT22;6449;47.666;9.160;2022-08-21T13:44:31;23.20;99.90
12771;DHT22;6449;47.666;9.160;2022-08-21T13:49:32;23.30;99.90
12771;DHT22;6449;47.666;9.160;2022-08-21T13:54:33;23.20;99.90
12771;DHT22;6449;47.666;9.160;2022-08-21T13:59:33;23.10;99.90
12771;DHT22;6449;47.666;9.160;2022-08-21T14:04:35;23.20;99.90
12771;DHT22;6449;47.666;9.160;2022-08-21T14:09:34;23.20;99.90
12771;DHT22;6449;47.666;9.160;2022-08-21T14:14:37;23.30;99.90
12771;DHT22;6449;47.666;9.160;2022-08-21T14:19:37;23.10;99.90
12771;DHT22;6449;47.666;9.160;2022-08-21T14:24:39;23.10;99.90
12771;DHT22;6449;47.666;9.160;2022-08-21T14:29:37;23.10;99.90
12771;DHT22;6449;47.666;9.160;2022-08-21T14:34:34;23.10;99.90
12771;DHT22;6449;47.666;9.160;2022-08-21T14:39:28;23.10;99.90
12771;DHT22;6449;47.666;9.160;2022-08-21T14:44:21;23.10;99.90
12771;DHT22;6449;47.666;9.160;2022-08-21T14:49:16;23.10;99.90
12771;DHT22;6449;47.666;9.160;2022-08-21T14:54:09;23.10;99.90
12771;DHT22;6449;47.666;9.160;2022-08-21T14:59:06;23.20;99.90
12771;DHT22;6449;47.666;9.160;2022-08-21T15:04:00;23.20;99.90
12771;DHT22;6449;47.666;9.160;2022-08-21T15:08:55;23.20;99.90
12771;DHT22;6449;47.666;9.160;2022-08-21T15:13:53;23.10;99.90
12771;DHT22;6449;47.666;9.160;2022-08-21T15:18:49;23.00;99.90
12771;DHT22;6449;47.666;9.160;2022-08-21T15:23:42;23.00;99.90
12771;DHT22;6449;47.666;9.160;2022-08-21T15:28:37;22.90;99.90
12771;DHT22;6449;47.666;9.160;2022-08-21T15:33:31;22.90;99.90
12771;DHT22;6449;47.666;9.160;2022-08-21T15:38:24;22.90;99.90
12771;DHT22;6449;47.666;9.160;2022-08-21T15:43:23;22.80;99.90
12771;DHT22;6449;47.666;9.160;2022-08-21T15:48:22;22.80;99.90
12771;DHT22;6449;47.666;9.160;2022-08-21T15:53:16;22.80;99.90
12771;DHT22;6449;47.666;9.160;2022-08-21T15:58:13;22.80;99.90
12771;DHT22;6449;47.666;9.160;2022-08-21T16:03:08;22.80;99.90
12771;DHT22;6449;47.666;9.160;2022-08-21T16:08:07;22.80;99.90
12771;DHT22;6449;47.666;9.160;2022-08-21T16:13:03;22.70;99.90
12771;DHT22;6449;47.666;9.160;2022-08-21T16:17:59;22.70;99.90
12771;DHT22;6449;47.666;9.160;2022-08-21T16:22:53;22.70;99.90
12771;DHT22;6449;47.666;9.160;2022-08-21T16:27:52;22.70;99.90
12771;DHT22;6449;47.666;9.160;2022-08-21T16:32:50;22.70;99.90
12771;DHT22;6449;47.666;9.160;2022-08-21T16:37:44;22.80;99.90
12771;DHT22;6449;47.666;9.160;2022-08-21T16:42:43;22.70;99.90
12771;DHT22;6449;47.666;9.160;2022-08-21T16:47:39;22.70;99.90
12771;DHT22;6449;47.666;9.160;2022-08-21T16:52:34;22.70;99.90
12771;DHT22;6449;47.666;9.160;2022-08-21T16:57:28;22.70;99.90
12771;DHT22;6449;47.666;9.160;2022-08-21T17:02:28;22.70;99.90
12771;DHT22;6449;47.666;9.160;2022-08-21T17:07:28;22.60;99.90
12771;DHT22;6449;47.666;9.160;2022-08-21T17:12:27;22.40;99.90
12771;DHT22;6449;47.666;9.160;2022-08-21T17:17:21;22.30;99.90
12771;DHT22;6449;47.666;9.160;2022-08-21T17:22:14;22.10;99.90
12771;DHT22;6449;47.666;9.160;2022-08-21T17:58:13;21.20;99.90
